Whitacre, Virginia
Current Conditions -  °F | °C
As of 8:53 AM on Wednesday 28 Jan 2015 (Local Time) from KMRB Reporting Station
Clear Clear  
Wind Chill: 15°   Ceiling: Unl
Heat Index: 23°   Visibility: 10mi
Dew Point:   Wind: 7mph
Humidity: 48%   Direction: 330°NNW
Pressure: 30.23"   Gusts: NA
Location:  39.3835°N, 78.3051°W
Report Text: KMRB 281353Z 33006KT 10SM CLR M05/M14 A3023 RMK AO2 SLP245 T10501144
Loading
Personal Weather Stations






























Interactive Weather Map New forecast layout! Learn more

10-Day Weather Forecast

Advertisements
Track Severe Weather on mobile